createdAt,value
2022-08-30T00:00:04.700Z,74.51
2022-08-30T00:01:04.682Z,75.44
2022-08-30T00:02:04.684Z,75.92
2022-08-30T00:03:04.832Z,75.99
2022-08-30T00:04:04.702Z,77.10
2022-08-30T00:05:04.644Z,77.03
2022-08-30T00:06:04.629Z,77.53
2022-08-30T00:07:04.690Z,77.60
2022-08-30T00:08:04.607Z,78.04
2022-08-30T00:09:04.602Z,76.96
2022-08-30T00:10:04.577Z,76.40
2022-08-30T00:11:04.572Z,74.38
2022-08-30T00:12:04.564Z,70.27
2022-08-30T00:13:04.577Z,64.16
2022-08-30T00:14:04.532Z,60.82
2022-08-30T00:15:04.537Z,59.31
2022-08-30T00:16:04.579Z,61.26
2022-08-30T00:17:04.519Z,63.10
2022-08-30T00:18:04.557Z,65.87
2022-08-30T00:19:04.479Z,68.72
2022-08-30T00:20:04.462Z,70.39
2022-08-30T00:21:04.458Z,69.46
2022-08-30T00:22:04.488Z,65.66
2022-08-30T00:23:04.456Z,62.86
2022-08-30T00:24:04.424Z,61.04
2022-08-30T00:25:04.425Z,60.47
2022-08-30T00:26:04.410Z,60.82
2022-08-30T00:27:04.409Z,62.07
2022-08-30T00:28:04.405Z,63.38
2022-08-30T00:29:04.367Z,64.95
2022-08-30T00:30:04.343Z,66.81
2022-08-30T00:31:04.396Z,68.16
2022-08-30T00:32:04.318Z,69.69
2022-08-30T00:33:04.313Z,71.04
2022-08-30T00:34:04.321Z,72.02
2022-08-30T00:35:04.296Z,73.21
2022-08-30T00:36:04.267Z,73.79
2022-08-30T00:37:04.314Z,73.92
2022-08-30T00:38:04.279Z,74.64
2022-08-30T00:39:04.266Z,74.57
2022-08-30T00:40:04.289Z,74.90
2022-08-30T00:41:04.239Z,74.44
2022-08-30T00:42:04.208Z,74.90
2022-08-30T00:43:13.932Z,74.31
2022-08-30T00:44:05.209Z,73.66
2022-08-30T00:45:04.171Z,73.15
2022-08-30T00:46:04.167Z,72.14
2022-08-30T00:47:04.152Z,71.41
2022-08-30T00:48:04.141Z,70.63
2022-08-30T00:49:04.158Z,69.81
2022-08-30T00:50:04.126Z,69.06
2022-08-30T00:51:04.113Z,68.11
2022-08-30T00:52:04.090Z,67.45
2022-08-30T00:53:04.093Z,67.18
2022-08-30T00:54:04.087Z,67.24
2022-08-30T00:55:04.078Z,67.18
2022-08-30T00:56:04.039Z,67.34
2022-08-30T00:57:04.048Z,67.78
2022-08-30T00:58:05.049Z,68.11
2022-08-30T00:59:04.018Z,68.16
2022-08-30T01:00:04.001Z,69.12
2022-08-30T01:01:04.051Z,69.00
2022-08-30T01:02:04.026Z,69.52
2022-08-30T01:03:04.067Z,70.15
2022-08-30T01:04:03.960Z,70.57
2022-08-30T01:05:03.949Z,70.63
2022-08-30T01:06:03.938Z,70.39
2022-08-30T01:07:03.922Z,70.98
2022-08-30T01:08:03.908Z,70.98
2022-08-30T01:09:03.895Z,70.75
2022-08-30T01:10:03.887Z,70.75
2022-08-30T01:11:03.891Z,71.29
2022-08-30T01:12:03.865Z,71.65
2022-08-30T01:13:03.855Z,71.35
2022-08-30T01:14:03.831Z,71.59
2022-08-30T01:15:03.829Z,71.53
2022-08-30T01:16:04.014Z,71.89
2022-08-30T01:17:03.842Z,71.41
2022-08-30T01:18:03.783Z,70.98
2022-08-30T01:19:03.774Z,70.68
2022-08-30T01:20:03.788Z,69.98
2022-08-30T01:21:03.761Z,67.94
2022-08-30T01:22:03.754Z,66.65
2022-08-30T01:23:03.736Z,65.76
2022-08-30T01:24:03.714Z,65.41
2022-08-30T01:25:03.717Z,63.43
2022-08-30T01:26:03.708Z,60.33
2022-08-30T01:27:03.730Z,57.81
2022-08-30T01:28:03.665Z,55.26
2022-08-30T01:29:03.669Z,53.67
2022-08-30T01:30:03.660Z,54.05
2022-08-30T01:31:03.751Z,55.15
2022-08-30T01:32:03.645Z,55.48
2022-08-30T01:33:03.630Z,56.75
2022-08-30T01:34:03.606Z,57.81
2022-08-30T01:35:03.597Z,58.98
2022-08-30T01:36:03.586Z,58.94
2022-08-30T01:37:03.593Z,59.31
2022-08-30T01:38:03.567Z,59.06
2022-08-30T01:39:03.550Z,58.53
2022-08-30T01:40:03.598Z,58.24
2022-08-30T01:41:03.515Z,57.10
2022-08-30T01:42:03.518Z,55.92
2022-08-30T01:43:03.490Z,54.22
2022-08-30T01:44:03.475Z,53.13
2022-08-30T01:45:03.480Z,52.27
2022-08-30T01:46:03.504Z,51.31
2022-08-30T01:47:03.467Z,49.94
2022-08-30T01:48:05.538Z,49.21
2022-08-30T01:49:03.427Z,48.56
2022-08-30T01:50:03.424Z,48.03
2022-08-30T01:51:03.410Z,47.95
2022-08-30T01:52:03.404Z,47.78
2022-08-30T01:53:03.394Z,48.28
2022-08-30T01:54:03.381Z,48.47
2022-08-30T01:55:03.369Z,48.61
2022-08-30T01:56:03.346Z,48.39
2022-08-30T01:57:03.356Z,48.00
2022-08-30T01:58:03.333Z,47.41
2022-08-30T01:59:03.427Z,47.14
2022-08-30T02:00:03.308Z,47.06
2022-08-30T02:01:03.351Z,47.67
2022-08-30T02:02:03.288Z,48.58
2022-08-30T02:03:03.263Z,49.88
2022-08-30T02:04:03.407Z,50.97
2022-08-30T02:05:03.241Z,52.11
2022-08-30T02:06:03.221Z,52.99
2022-08-30T02:07:03.242Z,53.84
2022-08-30T02:08:03.204Z,54.40
2022-08-30T02:09:03.207Z,54.76
2022-08-30T02:10:03.199Z,55.08
2022-08-30T02:11:03.179Z,55.44
2022-08-30T02:12:03.180Z,55.48
2022-08-30T02:13:03.152Z,55.59
2022-08-30T02:14:03.133Z,55.55
2022-08-30T02:15:03.123Z,55.88
2022-08-30T02:16:03.105Z,55.70
2022-08-30T02:17:03.159Z,55.92
2022-08-30T02:18:03.084Z,56.03
2022-08-30T02:19:03.093Z,56.14
2022-08-30T02:20:03.064Z,55.96
2022-08-30T02:21:03.053Z,56.33
2022-08-30T02:22:03.049Z,56.67
2022-08-30T02:23:03.042Z,57.37
2022-08-30T02:24:03.013Z,57.81
2022-08-30T02:25:03.002Z,58.82
2022-08-30T02:26:02.983Z,55.33
2022-08-30T02:27:02.985Z,53.43
2022-08-30T02:28:03.000Z,52.50
2022-08-30T02:29:02.956Z,52.08
2022-08-30T02:30:02.951Z,51.44
2022-08-30T02:31:02.952Z,51.22
2022-08-30T02:32:02.927Z,49.94
2022-08-30T02:33:02.951Z,48.03
2022-08-30T02:34:02.914Z,46.34
2022-08-30T02:35:02.883Z,45.24
2022-08-30T02:36:02.872Z,44.33
2022-08-30T02:37:02.861Z,43.64
2022-08-30T02:38:02.859Z,42.97
2022-08-30T02:39:02.869Z,42.97
2022-08-30T02:40:02.867Z,42.89
2022-08-30T02:41:02.808Z,43.33
2022-08-30T02:42:02.829Z,43.33
2022-08-30T02:43:02.795Z,43.15
2022-08-30T02:44:02.777Z,42.76
2022-08-30T02:45:02.798Z,42.93
2022-08-30T02:46:02.804Z,42.97
2022-08-30T02:47:02.738Z,43.64
2022-08-30T02:48:02.728Z,44.62
2022-08-30T02:49:23.796Z,46.18
2022-08-30T02:50:03.718Z,47.38
2022-08-30T02:51:02.696Z,48.31
2022-08-30T02:52:02.677Z,49.07
2022-08-30T02:53:02.683Z,49.85
2022-08-30T02:54:02.659Z,50.54
2022-08-30T02:55:02.692Z,51.25
2022-08-30T02:56:02.629Z,52.20
2022-08-30T02:57:02.626Z,53.20
2022-08-30T02:58:02.612Z,54.15
2022-08-30T02:59:02.597Z,54.83
2022-08-30T03:00:02.601Z,54.86
2022-08-30T03:01:02.641Z,54.37
2022-08-30T03:02:02.579Z,53.57
2022-08-30T03:03:02.548Z,52.83
2022-08-30T03:04:02.605Z,52.43
2022-08-30T03:05:02.549Z,51.98
2022-08-30T03:06:02.519Z,52.40
2022-08-30T03:07:02.499Z,52.20
2022-08-30T03:08:02.519Z,51.31
2022-08-30T03:09:02.479Z,50.30
2022-08-30T03:10:02.483Z,49.38
2022-08-30T03:11:02.477Z,48.56
2022-08-30T03:12:02.451Z,47.30
2022-08-30T03:13:02.446Z,46.70
2022-08-30T03:14:02.418Z,46.03
2022-08-30T03:15:02.440Z,45.19
2022-08-30T03:16:02.508Z,44.10
2022-08-30T03:17:02.402Z,43.28
2022-08-30T03:18:02.430Z,42.50
2022-08-30T03:19:02.363Z,41.53
2022-08-30T03:20:02.361Z,41.21
2022-08-30T03:21:02.377Z,40.57
2022-08-30T03:22:02.331Z,40.34
2022-08-30T03:23:02.322Z,40.65
2022-08-30T03:24:02.324Z,40.42
2022-08-30T03:25:02.293Z,40.89
2022-08-30T03:26:02.293Z,41.09
2022-08-30T03:27:02.276Z,41.21
2022-08-30T03:28:02.277Z,41.21
2022-08-30T03:29:02.257Z,41.29
2022-08-30T03:30:02.248Z,41.01
2022-08-30T03:31:02.217Z,40.97
2022-08-30T03:32:02.286Z,41.09
2022-08-30T03:33:02.214Z,40.93
2022-08-30T03:34:02.206Z,40.57
2022-08-30T03:35:02.195Z,39.77
2022-08-30T03:36:02.172Z,38.42
2022-08-30T03:37:02.190Z,38.08
2022-08-30T03:38:02.144Z,37.77
2022-08-30T03:39:02.135Z,36.91
2022-08-30T03:40:02.180Z,36.52
2022-08-30T03:41:02.229Z,35.81
2022-08-30T03:42:02.084Z,35.03
2022-08-30T03:43:02.092Z,34.40
2022-08-30T03:44:02.077Z,33.96
2022-08-30T03:45:02.063Z,33.23
2022-08-30T03:46:02.172Z,32.77
2022-08-30T03:47:02.037Z,32.64
2022-08-30T03:48:02.025Z,32.22
2022-08-30T03:49:02.018Z,32.41
2022-08-30T03:50:02.024Z,32.77
2022-08-30T03:51:02.024Z,32.87
2022-08-30T03:52:01.987Z,32.67
2022-08-30T03:53:01.964Z,32.14
2022-08-30T03:54:01.946Z,31.70
2022-08-30T03:55:01.943Z,31.28
2022-08-30T03:56:01.947Z,30.80
2022-08-30T03:57:01.926Z,30.47
2022-08-30T03:58:01.896Z,30.58
2022-08-30T03:59:01.897Z,30.58
2022-08-30T04:00:01.901Z,30.53
2022-08-30T04:01:01.978Z,30.31
2022-08-30T04:02:01.975Z,30.14
2022-08-30T04:03:01.858Z,30.14
2022-08-30T04:04:01.831Z,30.12
2022-08-30T04:05:01.835Z,30.53
2022-08-30T04:06:01.827Z,30.91
2022-08-30T04:07:01.828Z,31.47
2022-08-30T04:08:01.788Z,31.85
2022-08-30T04:09:01.789Z,32.54
2022-08-30T04:10:01.794Z,33.00
2022-08-30T04:11:01.761Z,33.52
2022-08-30T04:12:01.751Z,34.23
2022-08-30T04:13:01.758Z,34.51
2022-08-30T04:14:01.740Z,34.35
2022-08-30T04:15:01.721Z,34.12
2022-08-30T04:16:01.746Z,34.35
2022-08-30T04:17:01.688Z,34.51
2022-08-30T04:18:01.698Z,34.74
2022-08-30T04:19:01.697Z,35.09
2022-08-30T04:20:01.660Z,35.06
2022-08-30T04:21:01.632Z,35.27
2022-08-30T04:22:01.628Z,35.44
2022-08-30T04:23:01.649Z,34.97
2022-08-30T04:24:01.620Z,34.10
2022-08-30T04:25:01.596Z,32.82
2022-08-30T04:26:01.590Z,31.40
2022-08-30T04:27:01.577Z,29.90
2022-08-30T04:28:01.584Z,28.60
2022-08-30T04:29:01.561Z,27.57
2022-08-30T04:30:01.534Z,26.87
2022-08-30T04:31:01.515Z,26.12
2022-08-30T04:32:01.589Z,25.19
2022-08-30T04:33:01.509Z,24.19
2022-08-30T04:34:01.494Z,23.43
2022-08-30T04:35:01.487Z,22.87
2022-08-30T04:36:01.500Z,22.77
2022-08-30T04:37:01.452Z,22.74
2022-08-30T04:38:01.451Z,22.97
2022-08-30T04:39:01.438Z,22.57
2022-08-30T04:40:01.485Z,22.15
2022-08-30T04:41:01.401Z,22.26
2022-08-30T04:42:01.424Z,22.84
2022-08-30T04:43:01.390Z,22.94
2022-08-30T04:44:01.374Z,22.99
2022-08-30T04:45:01.357Z,23.25
2022-08-30T04:46:01.394Z,23.48
2022-08-30T04:47:01.337Z,23.56
2022-08-30T04:48:01.343Z,23.80
2022-08-30T04:49:01.326Z,23.95
2022-08-30T04:50:01.303Z,24.07
2022-08-30T04:51:01.297Z,23.62
2022-08-30T04:52:01.277Z,23.45
2022-08-30T04:53:01.295Z,23.09
2022-08-30T04:54:01.258Z,22.69
2022-08-30T04:55:01.237Z,22.52
2022-08-30T04:56:01.246Z,22.62
2022-08-30T04:57:01.228Z,22.79
2022-08-30T04:58:01.218Z,22.74
2022-08-30T04:59:01.193Z,22.57
2022-08-30T05:00:01.186Z,22.65
2022-08-30T05:01:01.228Z,22.52
2022-08-30T05:02:01.238Z,22.45
2022-08-30T05:03:01.172Z,22.33
2022-08-30T05:04:01.145Z,22.05
2022-08-30T05:05:01.135Z,21.80
2022-08-30T05:06:01.115Z,21.49
2022-08-30T05:07:01.107Z,21.21
2022-08-30T05:08:01.106Z,20.83
2022-08-30T05:09:01.086Z,20.19
2022-08-30T05:10:01.061Z,19.57
2022-08-30T05:11:01.047Z,19.12
2022-08-30T05:12:01.041Z,18.81
2022-08-30T05:13:01.038Z,18.43
2022-08-30T05:14:01.042Z,18.07
2022-08-30T05:15:01.012Z,17.54
2022-08-30T05:16:01.022Z,17.10
2022-08-30T05:17:00.989Z,16.73
2022-08-30T05:18:01.002Z,16.43
2022-08-30T05:19:00.957Z,16.24
2022-08-30T05:20:00.945Z,16.05
2022-08-30T05:21:00.932Z,15.99
2022-08-30T05:22:00.934Z,15.84
2022-08-30T05:23:00.965Z,15.74
2022-08-30T05:24:00.907Z,15.51
2022-08-30T05:25:00.890Z,15.27
2022-08-30T05:26:00.878Z,15.02
2022-08-30T05:27:00.860Z,14.89
2022-08-30T05:28:00.880Z,14.77
2022-08-30T05:29:00.839Z,14.69
2022-08-30T05:30:00.847Z,14.59
2022-08-30T05:31:00.862Z,14.62
2022-08-30T05:32:00.808Z,14.63
2022-08-30T05:33:00.801Z,14.58
2022-08-30T05:34:00.777Z,14.46
2022-08-30T05:35:00.780Z,14.35
2022-08-30T05:36:00.779Z,14.25
2022-08-30T05:37:00.753Z,14.12
2022-08-30T05:38:00.762Z,14.03
2022-08-30T05:39:00.767Z,14.01
2022-08-30T05:40:00.765Z,13.81
2022-08-30T05:41:01.731Z,13.72
2022-08-30T05:42:00.718Z,13.65
2022-08-30T05:43:00.700Z,13.53
2022-08-30T05:44:00.671Z,13.46
2022-08-30T05:45:00.693Z,13.47
2022-08-30T05:46:00.647Z,13.56
2022-08-30T05:47:00.665Z,13.54
2022-08-30T05:48:00.632Z,13.69
2022-08-30T05:49:00.602Z,13.74
2022-08-30T05:50:00.592Z,13.91
2022-08-30T05:51:00.582Z,14.06
2022-08-30T05:52:00.584Z,14.13
2022-08-30T05:53:00.563Z,14.27
2022-08-30T05:54:00.567Z,14.29
2022-08-30T05:55:00.544Z,14.31
2022-08-30T05:56:00.522Z,14.37
2022-08-30T05:57:00.518Z,14.43
2022-08-30T05:58:00.535Z,14.52
2022-08-30T05:59:00.487Z,14.48
2022-08-30T06:00:00.485Z,14.57
2022-08-30T06:01:00.471Z,14.72
2022-08-30T06:02:00.523Z,14.74
2022-08-30T06:03:00.495Z,14.85
2022-08-30T06:04:03.664Z,14.87
2022-08-30T06:05:00.423Z,14.88
2022-08-30T06:06:00.412Z,14.88
2022-08-30T06:07:00.410Z,14.94
2022-08-30T06:08:00.399Z,14.88
2022-08-30T06:09:00.373Z,14.88
2022-08-30T06:10:00.378Z,14.95
2022-08-30T06:11:00.342Z,15.00
2022-08-30T06:12:00.344Z,15.05
2022-08-30T06:13:00.354Z,15.11
2022-08-30T06:14:00.345Z,15.31
2022-08-30T06:15:00.308Z,15.53
2022-08-30T06:16:00.354Z,15.66
2022-08-30T06:17:00.294Z,16.04
2022-08-30T06:18:00.285Z,16.25
2022-08-30T06:19:00.287Z,16.42
2022-08-30T06:20:00.271Z,16.61
2022-08-30T06:21:00.235Z,16.91
2022-08-30T06:22:00.215Z,17.25
2022-08-30T06:23:00.216Z,17.53
2022-08-30T06:24:00.211Z,17.65
2022-08-30T06:25:00.199Z,17.78
2022-08-30T06:26:00.176Z,17.84
2022-08-30T06:27:00.187Z,17.92
2022-08-30T06:28:00.170Z,18.04
2022-08-30T06:29:00.134Z,18.19
2022-08-30T06:30:00.172Z,18.31
2022-08-30T06:31:00.248Z,18.37
2022-08-30T06:32:00.138Z,18.57
2022-08-30T06:33:00.118Z,18.86
2022-08-30T06:34:00.078Z,18.98
2022-08-30T06:35:00.080Z,19.16
2022-08-30T06:36:03.304Z,19.39
2022-08-30T06:37:01.046Z,19.60
2022-08-30T06:38:00.061Z,20.09
2022-08-30T06:39:00.022Z,20.68
2022-08-30T06:40:00.049Z,21.04
2022-08-30T06:41:00.000Z,21.67
2022-08-30T06:41:59.999Z,22.26
2022-08-30T06:43:00.023Z,22.97
2022-08-30T06:43:59.958Z,23.86
2022-08-30T06:44:59.949Z,24.28
2022-08-30T06:45:59.972Z,24.55
2022-08-30T06:46:59.989Z,24.70
2022-08-30T06:47:59.942Z,25.16
2022-08-30T06:48:59.913Z,25.42
2022-08-30T06:49:59.897Z,26.13
2022-08-30T06:50:59.893Z,26.93
2022-08-30T06:51:59.959Z,27.55
2022-08-30T06:52:59.893Z,28.20
2022-08-30T06:53:59.852Z,28.76
2022-08-30T06:54:59.872Z,29.50
2022-08-30T06:55:59.854Z,29.73
2022-08-30T06:56:59.812Z,29.63
2022-08-30T06:57:59.811Z,29.61
2022-08-30T06:58:59.805Z,29.84
2022-08-30T06:59:59.810Z,30.05
2022-08-30T07:00:59.825Z,29.71
2022-08-30T07:01:59.859Z,29.55
2022-08-30T07:02:59.827Z,29.34
2022-08-30T07:03:59.744Z,29.00
2022-08-30T07:04:59.714Z,28.68
2022-08-30T07:05:59.779Z,27.70
2022-08-30T07:06:59.704Z,27.11
2022-08-30T07:07:59.706Z,26.10
2022-08-30T07:08:59.704Z,25.76
2022-08-30T07:09:59.678Z,25.72
2022-08-30T07:10:59.646Z,25.59
2022-08-30T07:11:59.645Z,25.50
2022-08-30T07:12:59.706Z,25.50
2022-08-30T07:13:59.640Z,25.55
2022-08-30T07:14:59.608Z,25.31
2022-08-30T07:15:59.623Z,25.15
2022-08-30T07:16:59.597Z,25.24
2022-08-30T07:17:59.579Z,25.58
2022-08-30T07:18:59.597Z,26.12
2022-08-30T07:19:59.570Z,26.68
2022-08-30T07:20:59.537Z,26.87
2022-08-30T07:21:59.608Z,27.46
2022-08-30T07:22:59.511Z,27.59
2022-08-30T07:23:59.504Z,27.64
2022-08-30T07:24:59.494Z,28.27
2022-08-30T07:25:59.505Z,28.84
2022-08-30T07:26:59.495Z,29.08
2022-08-30T07:27:59.465Z,29.12
2022-08-30T07:28:59.517Z,29.55
2022-08-30T07:29:59.445Z,30.14
2022-08-30T07:30:59.454Z,30.80
2022-08-30T07:31:59.434Z,31.26
2022-08-30T07:32:59.408Z,31.37
2022-08-30T07:33:59.398Z,31.61
2022-08-30T07:34:59.382Z,31.63
2022-08-30T07:35:59.356Z,31.37
2022-08-30T07:36:59.351Z,31.42
2022-08-30T07:37:59.331Z,31.80
2022-08-30T07:38:59.354Z,32.09
2022-08-30T07:39:59.386Z,32.17
2022-08-30T07:40:59.296Z,32.41
2022-08-30T07:41:59.333Z,32.64
2022-08-30T07:42:59.291Z,33.82
2022-08-30T07:43:59.295Z,34.83
2022-08-30T07:44:59.250Z,35.65
2022-08-30T07:45:59.282Z,35.75
2022-08-30T07:46:59.227Z,35.78
2022-08-30T07:47:59.351Z,35.87
2022-08-30T07:48:59.222Z,36.24
2022-08-30T07:49:59.203Z,36.43
2022-08-30T07:51:04.521Z,37.10
2022-08-30T07:52:00.184Z,37.94
2022-08-30T07:52:59.172Z,39.06
2022-08-30T07:53:59.236Z,39.39
2022-08-30T07:54:59.149Z,40.22
2022-08-30T07:55:59.140Z,41.37
2022-08-30T07:56:59.124Z,41.53
2022-08-30T07:57:59.152Z,42.20
2022-08-30T07:58:59.106Z,42.93
2022-08-30T07:59:59.077Z,42.89
2022-08-30T08:00:59.105Z,43.69
2022-08-30T08:01:59.123Z,44.62
2022-08-30T08:02:59.116Z,44.47
2022-08-30T08:03:59.042Z,44.66
2022-08-30T08:04:59.055Z,45.73
2022-08-30T08:05:59.009Z,46.70
2022-08-30T08:06:59.007Z,47.17
2022-08-30T08:07:58.993Z,47.89
2022-08-30T08:08:58.979Z,48.98
2022-08-30T08:09:58.981Z,49.88
2022-08-30T08:10:58.989Z,49.88
2022-08-30T08:11:58.956Z,50.00
2022-08-30T08:12:58.941Z,48.95
2022-08-30T08:13:58.918Z,47.70
2022-08-30T08:14:58.911Z,46.90
2022-08-30T08:15:58.963Z,46.03
2022-08-30T08:16:58.885Z,44.81
2022-08-30T08:17:58.887Z,42.76
2022-08-30T08:18:58.893Z,41.90
2022-08-30T08:19:58.856Z,41.13
2022-08-30T08:20:58.865Z,40.26
2022-08-30T08:22:15.648Z,40.18
2022-08-30T08:22:59.819Z,40.77
2022-08-30T08:23:58.819Z,40.81
2022-08-30T08:24:58.795Z,41.37
2022-08-30T08:25:58.785Z,42.46
2022-08-30T08:26:58.817Z,43.20
2022-08-30T08:27:58.757Z,44.06
2022-08-30T08:28:58.755Z,44.71
2022-08-30T08:29:58.736Z,45.24
2022-08-30T08:30:58.753Z,46.13
2022-08-30T08:31:58.727Z,46.80
2022-08-30T08:32:58.710Z,46.85
2022-08-30T08:33:58.724Z,50.69
2022-08-30T08:34:58.678Z,55.15
2022-08-30T08:35:58.664Z,57.81
2022-08-30T08:36:58.695Z,61.04
2022-08-30T08:37:58.647Z,63.67
2022-08-30T08:38:58.652Z,66.39
2022-08-30T08:39:58.708Z,69.46
2022-08-30T08:40:58.609Z,74.11
2022-08-30T08:41:58.587Z,79.66
2022-08-30T08:42:58.607Z,84.89
2022-08-30T08:43:58.588Z,88.93
2022-08-30T08:44:58.613Z,92.76
2022-08-30T08:45:58.586Z,96.18
2022-08-30T08:46:58.550Z,101.46
2022-08-30T08:47:58.521Z,107.43
2022-08-30T08:49:00.266Z,109.89
2022-08-30T08:49:58.521Z,112.91
2022-08-30T08:51:02.447Z,116.43
2022-08-30T08:51:58.483Z,120.18
2022-08-30T08:52:58.477Z,125.56
2022-08-30T08:53:58.501Z,130.23
2022-08-30T08:54:59.269Z,135.15
2022-08-30T08:55:58.447Z,140.93
2022-08-30T08:56:58.468Z,145.31
2022-08-30T08:57:58.431Z,148.91
2022-08-30T08:58:58.395Z,153.82
2022-08-30T08:59:58.415Z,157.86
2022-08-30T09:00:58.394Z,161.97
2022-08-30T09:01:58.459Z,164.83
2022-08-30T09:02:58.386Z,166.96
2022-08-30T09:03:58.363Z,172.26
2022-08-30T09:04:58.389Z,173.86
2022-08-30T09:05:58.325Z,177.91
2022-08-30T09:06:58.333Z,179.05
2022-08-30T09:07:58.295Z,181.76
2022-08-30T09:08:58.307Z,182.74
2022-08-30T09:09:58.282Z,182.74
2022-08-30T09:10:58.274Z,185.36
2022-08-30T09:11:58.268Z,185.35
2022-08-30T09:13:00.164Z,186.29
2022-08-30T09:13:58.234Z,189.38
2022-08-30T09:14:58.249Z,193.14
2022-08-30T09:15:59.419Z,196.24
2022-08-30T09:16:58.206Z,194.62
2022-08-30T09:17:58.190Z,197.06
2022-08-30T09:18:58.171Z,198.71
2022-08-30T09:19:58.178Z,202.37
2022-08-30T09:20:58.163Z,204.37
2022-08-30T09:21:58.134Z,207.05
2022-08-30T09:22:58.134Z,210.21
2022-08-30T09:23:58.140Z,212.24
2022-08-30T09:24:58.161Z,213.47
2022-08-30T09:25:58.092Z,214.16
2022-08-30T09:26:58.084Z,217.55
2022-08-30T09:27:58.113Z,220.15
2022-08-30T09:28:58.061Z,221.63
2022-08-30T09:29:58.072Z,222.98
2022-08-30T09:30:58.052Z,225.72
2022-08-30T09:32:25.282Z,231.08
2022-08-30T09:32:59.024Z,233.20
2022-08-30T09:33:58.004Z,236.71
2022-08-30T09:34:57.994Z,239.28
2022-08-30T09:35:58.009Z,239.62
2022-08-30T09:36:57.973Z,233.53
2022-08-30T09:37:57.956Z,231.89
2022-08-30T09:38:57.952Z,230.60
2022-08-30T09:39:58.020Z,231.57
2022-08-30T09:40:57.946Z,228.84
2022-08-30T09:41:57.933Z,224.95
2022-08-30T09:42:57.905Z,224.79
2022-08-30T09:43:57.895Z,222.83
2022-08-30T09:44:57.883Z,225.10
2022-08-30T09:45:58.075Z,224.79
2022-08-30T09:46:57.847Z,227.27
2022-08-30T09:47:57.835Z,229.64
2022-08-30T09:48:57.831Z,232.54
2022-08-30T09:49:57.827Z,235.69
2022-08-30T09:50:57.819Z,237.56
2022-08-30T09:51:57.807Z,236.54
2022-08-30T09:52:57.786Z,232.71
2022-08-30T09:54:58.790Z,227.58
2022-08-30T09:55:57.753Z,218.55
2022-08-30T09:56:57.767Z,207.71
2022-08-30T09:57:57.867Z,200.04
2022-08-30T09:58:57.728Z,187.24
2022-08-30T09:59:57.719Z,183.54
2022-08-30T10:00:57.755Z,183.14
2022-08-30T10:01:57.692Z,194.05
2022-08-30T10:02:57.702Z,205.51
2022-08-30T10:03:57.662Z,212.65
2022-08-30T10:04:57.664Z,214.72
2022-08-30T10:05:57.749Z,219.28
2022-08-30T10:06:57.655Z,222.68
2022-08-30T10:07:57.778Z,224.19
2022-08-30T10:08:57.612Z,229.32
2022-08-30T10:09:57.619Z,234.86
2022-08-30T10:10:57.590Z,236.54
2022-08-30T10:11:57.565Z,236.54
2022-08-30T10:12:57.576Z,237.22
2022-08-30T10:13:57.546Z,240.67
2022-08-30T10:14:57.552Z,244.59
2022-08-30T10:15:57.524Z,249.01
2022-08-30T10:16:57.525Z,253.21
2022-08-30T10:17:57.503Z,256.35
2022-08-30T10:18:57.523Z,259.16
2022-08-30T10:19:57.494Z,263.29
2022-08-30T10:20:57.489Z,268.86
2022-08-30T10:21:57.465Z,272.63
2022-08-30T10:22:58.708Z,273.76
2022-08-30T10:23:57.446Z,278.60
2022-08-30T10:24:57.440Z,265.83
2022-08-30T10:25:57.407Z,257.55
2022-08-30T10:26:57.411Z,244.95
2022-08-30T10:27:57.388Z,240.85
2022-08-30T10:28:57.400Z,249.38
2022-08-30T10:29:57.380Z,261.62
2022-08-30T10:30:57.361Z,271.95
2022-08-30T10:31:57.350Z,269.95
2022-08-30T10:32:57.339Z,278.13
2022-08-30T10:33:57.328Z,287.07
2022-08-30T10:34:57.338Z,295.80
2022-08-30T10:35:57.308Z,290.60
2022-08-30T10:36:57.300Z,291.37
2022-08-30T10:37:57.293Z,292.40
2022-08-30T10:38:57.267Z,298.47
2022-08-30T10:39:57.336Z,306.78
2022-08-30T10:40:57.249Z,303.68
2022-08-30T10:41:57.231Z,311.70
2022-08-30T10:42:57.253Z,319.23
2022-08-30T10:43:57.212Z,320.46
2022-08-30T10:44:57.222Z,328.75
2022-08-30T10:45:57.193Z,325.51
2022-08-30T10:46:57.182Z,334.06
2022-08-30T10:47:57.169Z,332.72
2022-08-30T10:48:57.173Z,334.40
2022-08-30T10:49:57.154Z,339.55
2022-08-30T10:50:57.184Z,345.95
2022-08-30T10:51:58.951Z,344.87
2022-08-30T10:52:57.121Z,349.24
2022-08-30T10:53:57.108Z,349.98
2022-08-30T10:54:57.115Z,351.10
2022-08-30T10:55:57.141Z,348.87
2022-08-30T10:56:57.081Z,349.61
2022-08-30T10:57:57.053Z,349.61
2022-08-30T10:58:57.066Z,345.23
2022-08-30T10:59:57.038Z,343.43
2022-08-30T11:00:57.066Z,345.95
2022-08-30T11:01:57.008Z,348.87
2022-08-30T11:02:56.996Z,348.87
2022-08-30T11:03:56.986Z,351.47
2022-08-30T11:04:56.986Z,350.72
2022-08-30T11:05:56.983Z,351.47
2022-08-30T11:06:56.948Z,356.01
2022-08-30T11:07:56.936Z,356.01
2022-08-30T11:08:56.934Z,358.33
2022-08-30T11:09:56.920Z,359.49
2022-08-30T11:10:56.931Z,362.25
2022-08-30T11:11:56.896Z,362.25
2022-08-30T11:12:56.894Z,361.86
2022-08-30T11:13:57.486Z,363.45
2022-08-30T11:14:56.872Z,364.65
2022-08-30T11:15:56.851Z,367.08
2022-08-30T11:16:56.861Z,363.85
2022-08-30T11:17:56.839Z,367.08
2022-08-30T11:18:56.822Z,368.31
2022-08-30T11:19:56.827Z,367.08
2022-08-30T11:20:56.793Z,368.72
2022-08-30T11:21:56.794Z,369.54
2022-08-30T11:22:56.774Z,372.46
2022-08-30T11:23:56.792Z,370.37
2022-08-30T11:24:56.749Z,369.54
2022-08-30T11:25:57.545Z,369.95
2022-08-30T11:26:56.744Z,374.14
2022-08-30T11:27:56.713Z,378.49
2022-08-30T11:28:56.706Z,380.64
2022-08-30T11:29:56.699Z,378.28
2022-08-30T11:30:56.681Z,378.92
2022-08-30T11:31:56.684Z,381.72
2022-08-30T11:32:56.665Z,381.72
2022-08-30T11:33:56.662Z,380.85
2022-08-30T11:34:56.644Z,383.46
2022-08-30T11:35:56.641Z,383.68
2022-08-30T11:36:56.626Z,386.33
2022-08-30T11:37:56.617Z,385.22
2022-08-30T11:38:56.597Z,386.33
2022-08-30T11:39:56.586Z,387.00
2022-08-30T11:40:56.701Z,388.79
2022-08-30T11:41:56.567Z,387.44
2022-08-30T11:42:56.597Z,391.74
2022-08-30T11:43:56.540Z,390.60
2022-08-30T11:44:56.517Z,390.82
2022-08-30T11:45:56.523Z,392.42
2022-08-30T11:46:56.522Z,390.60
2022-08-30T11:47:56.486Z,384.12
2022-08-30T11:48:56.550Z,383.46
2022-08-30T11:49:56.459Z,384.56
2022-08-30T11:50:56.451Z,385.89
2022-08-30T11:52:23.765Z,389.92
2022-08-30T11:52:57.431Z,387.00
2022-08-30T11:53:56.440Z,387.00
2022-08-30T11:54:56.408Z,389.24
2022-08-30T11:55:56.397Z,389.24
2022-08-30T11:56:56.498Z,386.11
2022-08-30T11:57:56.383Z,391.05
2022-08-30T11:58:56.369Z,391.28
2022-08-30T11:59:56.373Z,385.44
2022-08-30T12:00:56.344Z,386.77
2022-08-30T12:01:56.490Z,392.65
2022-08-30T12:02:56.399Z,390.37
2022-08-30T12:03:56.315Z,389.92
2022-08-30T12:04:56.325Z,394.03
2022-08-30T12:05:57.404Z,393.57
2022-08-30T12:06:56.279Z,392.19
2022-08-30T12:07:56.261Z,391.28
2022-08-30T12:09:02.119Z,393.34
2022-08-30T12:09:57.247Z,393.11
2022-08-30T12:10:56.466Z,393.11
2022-08-30T12:11:56.243Z,392.65
2022-08-30T12:12:56.204Z,389.46
2022-08-30T12:13:56.212Z,392.42
2022-08-30T12:14:56.185Z,395.42
2022-08-30T12:15:56.179Z,392.88
2022-08-30T12:16:56.221Z,392.88
2022-08-30T12:17:56.167Z,393.34
2022-08-30T12:18:56.145Z,396.59
2022-08-30T12:19:56.127Z,395.42
2022-08-30T12:20:56.556Z,394.96
2022-08-30T12:21:56.100Z,393.11
2022-08-30T12:22:56.116Z,392.65
2022-08-30T12:23:56.127Z,391.28
2022-08-30T12:24:56.100Z,397.77
2022-08-30T12:25:56.070Z,394.73
2022-08-30T12:26:56.040Z,393.57
2022-08-30T12:27:57.966Z,398.00
2022-08-30T12:28:57.042Z,398.95
2022-08-30T12:29:56.024Z,399.18
2022-08-30T12:30:56.000Z,398.47
2022-08-30T12:31:56.037Z,400.14
2022-08-30T12:32:55.984Z,400.37
2022-08-30T12:33:55.960Z,402.53
2022-08-30T12:34:55.989Z,399.90
2022-08-30T12:35:55.952Z,403.74
2022-08-30T12:36:55.941Z,402.29
2022-08-30T12:37:55.918Z,403.02
2022-08-30T12:38:55.923Z,404.96
2022-08-30T12:39:55.925Z,403.26
2022-08-30T12:40:55.893Z,403.50
2022-08-30T12:41:55.880Z,407.66
2022-08-30T12:42:55.865Z,407.66
2022-08-30T12:43:55.859Z,404.96
2022-08-30T12:44:55.882Z,398.47